Time;durP1;ratioP1;P1;durP2;ratioP2;P2;SDS_P1;SDS_P2;PMS_P1;PMS_P2;Temp;Humidity;BMP_temperature;BMP_pressure;BME280_temperature;BME280_humidity;BME280_pressure;Samples;Min_cycle;Max_cycle;Signal;HPM_P1;HPM_P2
2023/07/25 00:01:34;;;;;;;;;15.20;13.80;;;;;28.49;32.77;98309.91;5058962;28;8939;-76
2023/07/25 00:04:03;;;;;;;;;16.00;13.40;;;;;28.47;32.94;98312.78;5053228;28;8841;-78
2023/07/25 00:06:33;;;;;;;;;21.60;17.40;;;;;28.58;32.53;98316.97;5052313;28;8860;-77
2023/07/25 00:09:02;;;;;;;;;14.60;14.20;;;;;28.41;32.69;98311.63;5047645;28;9598;-78
2023/07/25 00:11:31;;;;;;;;;15.40;14.40;;;;;28.69;32.36;98318.44;5045014;28;8853;-78
2023/07/25 00:14:00;;;;;;;;;14.20;14.20;;;;;28.73;32.38;98327.88;5067420;28;8867;-78
2023/07/25 00:16:29;;;;;;;;;16.00;14.60;;;;;28.68;32.32;98331.09;5067273;28;8904;-78
2023/07/25 00:18:58;;;;;;;;;18.20;16.20;;;;;28.84;32.23;98332.00;5067527;28;8843;-75
2023/07/25 00:21:27;;;;;;;;;16.80;15.60;;;;;28.73;32.50;98317.06;5067121;28;8889;-78
2023/07/25 00:23:57;;;;;;;;;16.60;15.40;;;;;28.75;32.33;98323.13;5068331;28;8983;-79
2023/07/25 00:26:26;;;;;;;;;16.80;13.60;;;;;28.97;31.43;98327.72;5067931;28;8846;-78
2023/07/25 00:28:55;;;;;;;;;17.00;16.20;;;;;28.98;31.81;98329.38;5068108;28;9629;-77
2023/07/25 00:31:24;;;;;;;;;18.80;17.40;;;;;29.07;31.09;98332.88;5088590;28;8903;-79
2023/07/25 00:33:53;;;;;;;;;17.40;15.60;;;;;29.08;31.12;98322.88;5046012;28;8823;-79
2023/07/25 00:36:21;;;;;;;;;14.40;14.40;;;;;29.19;31.23;98319.78;5068224;28;8846;-78
2023/07/25 00:38:50;;;;;;;;;15.40;15.20;;;;;29.15;31.49;98321.97;5068975;28;8862;-76
2023/07/25 00:41:20;;;;;;;;;13.40;12.80;;;;;29.28;30.93;98325.97;5068138;28;9679;-77
2023/07/25 00:43:49;;;;;;;;;16.20;14.00;;;;;28.90;31.03;98315.09;5068010;28;9604;-78
2023/07/25 00:46:19;;;;;;;;;16.20;14.20;;;;;28.99;31.22;98311.31;5078535;28;8847;-78
2023/07/25 00:48:49;;;;;;;;;11.40;10.80;;;;;29.01;30.71;98314.66;5088222;28;9016;-77
2023/07/25 00:51:18;;;;;;;;;15.20;12.60;;;;;29.18;30.70;98310.81;5089440;28;8859;-78
2023/07/25 00:53:47;;;;;;;;;14.80;13.40;;;;;29.29;30.30;98304.13;5082921;28;8943;-78
2023/07/25 00:56:16;;;;;;;;;14.20;12.80;;;;;29.41;30.02;98306.41;5070572;28;8940;-77
2023/07/25 00:58:47;;;;;;;;;18.00;15.00;;;;;29.40;30.32;98312.81;5071025;28;8854;-79
2023/07/25 01:01:16;;;;;;;;;15.00;14.00;;;;;29.44;29.66;98314.13;5065828;28;8837;-78
2023/07/25 01:03:45;;;;;;;;;16.20;13.80;;;;;29.63;30.00;98313.59;5056922;28;9695;-76
2023/07/25 01:06:15;;;;;;;;;10.80;10.00;;;;;29.70;29.75;98321.84;5067882;28;8854;-76
2023/07/25 01:08:51;;;;;;;;;13.20;12.40;;;;;29.83;29.19;98323.94;5068795;28;8854;-78
2023/07/25 01:11:21;;;;;;;;;15.20;14.00;;;;;29.86;29.26;98331.66;5086314;28;8884;-77
2023/07/25 01:13:52;;;;;;;;;16.60;14.20;;;;;29.85;29.69;98336.25;5069677;28;8987;-76
2023/07/25 01:16:24;;;;;;;;;15.40;12.00;;;;;29.75;29.40;98338.41;5069660;28;8850;-77
2023/07/25 01:18:54;;;;;;;;;16.20;15.20;;;;;29.47;29.91;98348.97;5062340;28;8851;-76
2023/07/25 01:21:23;;;;;;;;;14.20;14.20;;;;;29.37;30.32;98351.94;5035970;28;8840;-79
2023/07/25 01:23:52;;;;;;;;;16.80;15.60;;;;;29.01;31.17;98363.38;5069182;28;8981;-77
2023/07/25 01:26:24;;;;;;;;;16.40;15.00;;;;;28.73;31.54;98366.56;5069762;28;8863;-78
2023/07/25 01:28:52;;;;;;;;;14.80;14.00;;;;;28.59;31.43;98364.59;5069370;28;8879;-78
2023/07/25 01:31:21;;;;;;;;;13.80;13.60;;;;;28.70;31.46;98368.78;5069042;28;8856;-78
2023/07/25 01:33:50;;;;;;;;;15.20;12.00;;;;;28.28;32.18;98380.81;5076430;28;9122;-75
2023/07/25 01:36:19;;;;;;;;;13.40;11.60;;;;;28.50;31.75;98376.47;5062521;28;8948;-78
2023/07/25 01:38:47;;;;;;;;;16.60;15.20;;;;;28.65;31.81;98380.16;5069724;28;8962;-77
2023/07/25 01:41:16;;;;;;;;;12.00;12.00;;;;;28.81;31.51;98386.47;5069491;28;8879;-78
2023/07/25 01:43:46;;;;;;;;;14.80;12.20;;;;;28.92;30.96;98381.50;5033529;28;8838;-77
2023/07/25 01:46:15;;;;;;;;;14.20;12.20;;;;;29.05;30.96;98374.66;5067304;28;8834;-76
2023/07/25 01:48:44;;;;;;;;;19.20;16.20;;;;;29.14;30.94;98376.25;5067187;28;8862;-78
2023/07/25 01:51:13;;;;;;;;;16.80;15.60;;;;;29.25;31.40;98388.56;5103971;28;8845;-78
2023/07/25 01:53:42;;;;;;;;;13.60;13.00;;;;;29.29;31.33;98382.63;5086056;28;8885;-75
2023/07/25 01:56:10;;;;;;;;;15.60;15.40;;;;;29.29;31.77;98400.72;5036484;28;8861;-78
2023/07/25 01:58:39;;;;;;;;;17.60;13.60;;;;;29.59;31.16;98408.94;5086707;28;8837;-78
2023/07/25 02:01:10;;;;;;;;;19.60;17.40;;;;;29.44;32.11;98431.38;5089256;28;9028;-79
2023/07/25 02:03:38;;;;;;;;;14.00;13.00;;;;;29.60;31.34;98402.50;5089434;28;8916;-79
2023/07/25 02:06:07;;;;;;;;;15.80;15.80;;;;;29.66;31.89;98420.72;5089267;28;9622;-77
2023/07/25 02:08:36;;;;;;;;;17.00;16.60;;;;;29.61;32.20;98418.53;5108658;27;8883;-76
2023/07/25 02:11:05;;;;;;;;;16.20;14.80;;;;;29.06;33.16;98436.69;5089137;28;8865;-77
2023/07/25 02:13:34;;;;;;;;;19.60;16.80;;;;;28.14;35.26;98463.41;5106218;28;8906;-78
2023/07/25 02:16:03;;;;;;;;;17.40;16.80;;;;;28.13;35.35;98459.03;5056509;28;8853;-78
2023/07/25 02:18:33;;;;;;;;;19.20;19.00;;;;;27.96;36.13;98442.81;5089188;28;8873;-80
2023/07/25 02:21:02;;;;;;;;;16.20;15.40;;;;;28.21;35.50;98440.09;5105723;28;8822;-79
2023/07/25 02:23:31;;;;;;;;;11.80;11.00;;;;;28.35;35.13;98442.09;5069331;28;9633;-79
2023/07/25 02:26:00;;;;;;;;;20.40;18.20;;;;;28.48;35.16;98437.97;5096540;28;8836;-79
2023/07/25 02:28:29;;;;;;;;;18.80;18.00;;;;;28.53;34.86;98428.31;5070037;28;8846;-79
2023/07/25 02:30:58;;;;;;;;;21.60;20.80;;;;;28.54;35.29;98443.53;5066847;28;8871;-78
2023/07/25 02:33:26;;;;;;;;;18.00;16.60;;;;;28.62;34.97;98452.63;5067037;28;8947;-78
2023/07/25 02:35:57;;;;;;;;;21.80;19.20;;;;;28.65;35.00;98455.88;5070837;28;8826;-79
2023/07/25 02:38:25;;;;;;;;;18.00;16.60;;;;;28.69;34.77;98457.19;5070620;28;8847;-81
2023/07/25 02:40:54;;;;;;;;;22.80;19.60;;;;;28.53;34.73;98468.88;5019892;28;8851;-78
2023/07/25 02:43:23;;;;;;;;;22.20;19.80;;;;;28.27;35.40;98468.28;5078613;28;8970;-79
2023/07/25 02:45:53;;;;;;;;;17.20;17.20;;;;;28.45;34.27;98473.47;5071837;28;8950;-78
2023/07/25 02:48:21;;;;;;;;;19.80;18.60;;;;;28.55;34.46;98483.06;5070265;28;8854;-78
2023/07/25 02:50:50;;;;;;;;;14.80;12.80;;;;;28.63;34.60;98484.91;5070569;28;9701;-78
2023/07/25 02:53:20;;;;;;;;;15.80;15.80;;;;;28.70;34.79;98491.31;5036253;28;8874;-79
2023/07/25 02:55:50;;;;;;;;;18.80;17.20;;;;;28.78;34.87;98476.91;5036122;28;8844;-78
2023/07/25 02:58:19;;;;;;;;;16.60;14.60;;;;;28.78;35.17;98466.97;5050609;28;8843;-77
2023/07/25 03:00:48;;;;;;;;;18.00;16.40;;;;;28.72;35.00;98459.53;5090421;28;8856;-76
2023/07/25 03:03:17;;;;;;;;;19.00;17.40;;;;;28.69;34.80;98446.38;5073680;28;8863;-77
2023/07/25 03:05:46;;;;;;;;;20.80;18.80;;;;;28.73;35.03;98446.88;5090279;28;8850;-78
2023/07/25 03:08:15;;;;;;;;;20.00;18.80;;;;;28.70;34.88;98449.91;5088622;28;8853;-77
2023/07/25 03:10:45;;;;;;;;;19.60;17.00;;;;;28.67;33.46;98443.00;5071956;28;8884;-81
2023/07/25 03:13:14;;;;;;;;;22.20;20.60;;;;;28.66;34.15;98440.47;5088897;28;10032;-77
2023/07/25 03:15:43;;;;;;;;;20.20;18.80;;;;;28.31;32.90;98438.06;5048814;28;8850;-79
2023/07/25 03:18:11;;;;;;;;;19.00;18.40;;;;;28.41;32.44;98410.81;5040107;28;9069;-79
2023/07/25 03:20:40;;;;;;;;;16.60;13.40;;;;;28.40;31.38;98401.88;5088920;28;8830;-80
2023/07/25 03:23:09;;;;;;;;;17.00;16.20;;;;;28.39;32.20;98396.63;5071982;28;8854;-80
2023/07/25 03:25:38;;;;;;;;;16.00;16.00;;;;;28.37;32.53;98395.97;5055068;28;8911;-79
2023/07/25 03:28:08;;;;;;;;;16.80;15.40;;;;;28.35;30.94;98389.91;5055196;28;8854;-78
2023/07/25 03:30:38;;;;;;;;;18.60;18.00;;;;;28.31;31.57;98391.25;5072173;28;8873;-78
2023/07/25 03:33:06;;;;;;;;;14.60;13.80;;;;;27.87;30.82;98413.28;5048746;28;8857;-78
2023/07/25 03:35:35;;;;;;;;;20.40;17.60;;;;;27.41;32.64;98422.75;5082600;28;9025;-78
2023/07/25 03:38:04;;;;;;;;;16.80;14.60;;;;;26.79;34.92;98450.06;5051633;28;8846;-79
2023/07/25 03:40:33;;;;;;;;;18.00;16.60;;;;;26.27;36.99;98463.63;5051790;28;8847;-80
2023/07/25 03:43:02;;;;;;;;;18.20;16.80;;;;;25.80;39.26;98486.34;5086471;28;8862;-79
2023/07/25 03:45:32;;;;;;;;;20.00;18.60;;;;;25.56;40.67;98476.19;5052748;28;8850;-78
2023/07/25 03:48:01;;;;;;;;;20.20;18.20;;;;;25.36;41.22;98464.78;5070437;28;8928;-80
2023/07/25 03:50:30;;;;;;;;;20.40;19.60;;;;;25.44;42.08;98462.13;5065382;28;8875;-79
2023/07/25 03:52:59;;;;;;;;;17.40;16.40;;;;;25.41;42.42;98453.53;5090137;28;8875;-79
2023/07/25 03:55:29;;;;;;;;;24.40;20.80;;;;;25.35;42.59;98446.09;5092562;28;9316;-79
2023/07/25 03:57:57;;;;;;;;;24.80;21.00;;;;;25.30;43.45;98449.19;5055523;28;9742;-80
2023/07/25 04:00:26;;;;;;;;;20.80;19.40;;;;;25.26;43.22;98451.34;5051317;28;8873;-79
2023/07/25 04:02:56;;;;;;;;;23.00;21.20;;;;;25.28;43.39;98446.69;5050555;28;8858;-79
2023/07/25 04:05:42;;;;;;;;;25.80;24.20;;;;;25.31;43.96;98435.59;5050930;28;8956;-79
2023/07/25 04:08:11;;;;;;;;;24.20;23.40;;;;;25.19;43.90;98431.47;5055691;28;8832;-79
2023/07/25 04:10:40;;;;;;;;;25.40;23.40;;;;;24.79;45.34;98435.38;5030797;28;8861;-80
2023/07/25 04:13:09;;;;;;;;;23.40;23.40;;;;;24.51;46.74;98431.84;5035124;28;8943;-79
2023/07/25 04:15:38;;;;;;;;;25.20;24.20;;;;;24.41;47.53;98437.25;5017511;28;8866;-80
2023/07/25 04:18:08;;;;;;;;;26.80;25.00;;;;;24.32;48.10;98446.19;5050549;28;8854;-80
2023/07/25 04:20:38;;;;;;;;;22.00;21.60;;;;;24.50;47.30;98436.34;5050587;28;8892;-79
2023/07/25 04:23:06;;;;;;;;;23.20;22.20;;;;;24.67;47.55;98434.72;5050279;28;8850;-80
2023/07/25 04:25:35;;;;;;;;;27.60;24.60;;;;;24.89;46.98;98421.91;5031030;28;8891;-79
2023/07/25 04:28:05;;;;;;;;;26.40;24.40;;;;;24.52;48.56;98438.91;5046867;28;8868;-78
2023/07/25 04:30:34;;;;;;;;;28.20;25.40;;;;;24.46;49.01;98458.31;5027964;28;8945;-79
2023/07/25 04:33:03;;;;;;;;;29.40;24.80;;;;;24.76;48.27;98464.44;5027243;28;9144;-80
2023/07/25 04:35:33;;;;;;;;;34.25;31.25;;;;;24.99;47.69;98454.09;4978911;28;8909;-80
2023/07/25 04:38:02;;;;;;;;;23.40;23.40;;;;;25.22;47.57;98447.25;5045202;28;8836;-79
2023/07/25 04:40:31;;;;;;;;;27.40;26.40;;;;;25.34;46.88;98450.63;5049521;28;8837;-81
2023/07/25 04:42:59;;;;;;;;;26.20;22.00;;;;;25.62;46.46;98442.44;5064033;28;8942;-79
2023/07/25 04:45:29;;;;;;;;;26.80;25.60;;;;;25.90;45.91;98435.94;5048149;28;8933;-80
2023/07/25 04:47:57;;;;;;;;;29.60;28.00;;;;;26.07;45.44;98423.44;5053629;28;8886;-79
2023/07/25 04:50:26;;;;;;;;;25.40;25.40;;;;;25.79;45.90;98420.03;5067399;28;8839;-80
2023/07/25 04:52:56;;;;;;;;;22.60;21.00;;;;;25.62;46.31;98407.44;5050639;28;8866;-80
2023/07/25 04:55:26;;;;;;;;;27.60;25.40;;;;;26.11;45.45;98388.13;5083812;28;8839;-81
2023/07/25 04:57:55;;;;;;;;;35.50;32.25;;;;;26.41;44.84;98390.25;5063928;28;8864;-80
2023/07/25 05:00:24;;;;;;;;;30.60;28.80;;;;;26.65;44.10;98391.41;5048305;28;8804;-79
2023/07/25 05:02:55;;;;;;;;;29.80;28.60;;;;;26.92;43.69;98402.94;5047238;28;8867;-79
2023/07/25 05:05:24;;;;;;;;;28.80;28.00;;;;;27.13;43.45;98413.28;5075590;28;8960;-79
2023/07/25 05:07:53;;;;;;;;;28.75;28.00;;;;;26.67;44.65;98413.66;5086016;28;8878;-80
2023/07/25 05:10:23;;;;;;;;;28.80;25.60;;;;;25.73;47.06;98423.34;5086168;28;8930;-79
2023/07/25 05:12:52;;;;;;;;;30.80;29.20;;;;;25.13;48.95;98424.84;5023041;28;8846;-79
2023/07/25 05:15:20;;;;;;;;;28.80;26.80;;;;;25.00;50.38;98429.75;5032561;28;8847;-79
2023/07/25 05:17:49;;;;;;;;;26.40;23.80;;;;;25.04;50.42;98432.97;5049064;28;8858;-79
2023/07/25 05:20:18;;;;;;;;;30.20;27.20;;;;;25.01;49.89;98433.28;5062549;28;8851;-79
2023/07/25 05:22:47;;;;;;;;;26.00;23.60;;;;;24.86;50.88;98422.19;5064944;28;8937;-80
2023/07/25 05:25:16;;;;;;;;;28.40;27.00;;;;;25.10;50.32;98418.94;5065807;28;8828;-81
2023/07/25 05:27:46;;;;;;;;;29.60;29.60;;;;;24.96;50.61;98414.91;5018720;28;8941;-79
2023/07/25 05:30:15;;;;;;;;;29.40;28.80;;;;;25.06;51.02;98417.53;5013253;28;8981;-81
2023/07/25 05:32:45;;;;;;;;;27.40;26.40;;;;;25.15;51.06;98410.38;5013076;28;8955;-79
2023/07/25 05:35:14;;;;;;;;;31.40;30.00;;;;;25.85;48.72;98407.78;5026574;28;8874;-79
2023/07/25 05:37:43;;;;;;;;;28.20;25.40;;;;;26.38;47.27;98387.06;4962555;28;8837;-79
2023/07/25 05:40:12;;;;;;;;;28.60;26.60;;;;;26.86;46.21;98402.56;5029851;28;8833;-81
2023/07/25 05:42:41;;;;;;;;;34.00;31.25;;;;;26.65;46.42;98413.81;5030505;28;8926;-81
2023/07/25 05:45:11;;;;;;;;;30.40;29.60;;;;;26.23;47.60;98411.06;5028744;28;8880;-75
2023/07/25 05:47:40;;;;;;;;;33.80;30.20;;;;;26.37;47.53;98413.16;5045241;28;8869;-73
2023/07/25 05:50:10;;;;;;;;;31.20;29.80;;;;;26.50;47.08;98412.75;5029076;28;8825;-77
2023/07/25 05:52:39;;;;;;;;;31.25;29.50;;;;;26.64;47.08;98419.34;5045406;28;8927;-76
2023/07/25 05:55:08;;;;;;;;;32.25;29.25;;;;;27.11;45.96;98412.59;5034715;28;8842;-75
2023/07/25 05:57:37;;;;;;;;;33.75;31.25;;;;;27.32;45.15;98412.94;5046999;28;8968;-74
2023/07/25 06:00:08;;;;;;;;;35.75;30.25;;;;;26.13;48.41;98419.25;5039821;28;8858;-76
2023/07/25 06:02:38;;;;;;;;;28.40;28.40;;;;;25.96;49.35;98418.31;5070693;28;8913;-75
2023/07/25 06:05:07;;;;;;;;;34.75;32.00;;;;;26.36;48.40;98406.09;5047783;28;8861;-76
2023/07/25 06:07:36;;;;;;;;;32.40;29.80;;;;;26.38;47.35;98398.69;5053623;28;8842;-76
2023/07/25 06:10:06;;;;;;;;;29.25;27.00;;;;;26.80;46.75;98386.22;5072988;28;8854;-75
2023/07/25 06:12:35;;;;;;;;;28.00;27.20;;;;;27.13;45.86;98387.13;5075330;28;8851;-77
2023/07/25 06:15:05;;;;;;;;;29.60;28.00;;;;;27.37;45.35;98380.06;5072347;28;8858;-77
2023/07/25 06:17:34;;;;;;;;;31.25;30.25;;;;;27.62;44.90;98387.16;5071193;28;8868;-76
2023/07/25 06:20:05;;;;;;;;;30.60;29.60;;;;;28.00;44.23;98383.88;5071876;28;8869;-74
2023/07/25 06:22:34;;;;;;;;;26.25;26.00;;;;;28.27;43.65;98374.56;5070600;28;9576;-77
2023/07/25 06:25:04;;;;;;;;;28.00;28.00;;;;;28.47;43.41;98371.44;5071808;28;8943;-79
2023/07/25 06:27:32;;;;;;;;;28.00;26.25;;;;;28.50;42.91;98358.41;5071056;28;8854;-82
2023/07/25 06:30:02;;;;;;;;;33.75;29.25;;;;;28.58;43.08;98347.53;5052194;28;8849;-83
2023/07/25 06:32:33;;;;;;;;;32.00;29.00;;;;;28.45;43.23;98341.03;5080750;28;8886;-83
2023/07/25 06:35:02;;;;;;;;;33.75;31.50;;;;;28.53;42.78;98335.56;5069650;28;9642;-83
2023/07/25 06:37:33;;;;;;;;;31.50;28.75;;;;;28.40;43.01;98339.69;5050756;28;8889;-82
2023/07/25 06:40:03;;;;;;;;;31.50;28.25;;;;;28.78;42.65;98331.72;5054622;28;8856;-83
2023/07/25 06:42:32;;;;;;;;;34.00;31.50;;;;;28.94;41.94;98329.94;5052534;28;8871;-83
2023/07/25 06:45:05;;;;;;;;;30.00;29.00;;;;;29.20;41.85;98328.72;5029929;28;8871;-76
2023/07/25 06:47:34;;;;;;;;;30.60;28.20;;;;;29.32;40.64;98340.81;4978634;28;8995;-75
2023/07/25 06:50:03;;;;;;;;;33.00;27.20;;;;;29.46;40.96;98345.44;5012884;28;8862;-77
2023/07/25 06:52:33;;;;;;;;;31.25;30.00;;;;;29.70;40.38;98351.66;5023454;28;8868;-74
2023/07/25 06:55:02;;;;;;;;;32.50;29.75;;;;;29.65;41.01;98344.06;5027929;28;8867;-78
2023/07/25 06:57:31;;;;;;;;;28.40;27.60;;;;;29.42;41.86;98345.97;4980219;28;8949;-73
2023/07/25 07:00:00;;;;;;;;;29.00;28.00;;;;;29.73;41.05;98326.91;5027982;28;8902;-77
2023/07/25 07:02:29;;;;;;;;;29.50;27.50;;;;;29.88;40.81;98335.88;5027188;28;8860;-75
2023/07/25 07:04:58;;;;;;;;;33.50;30.50;;;;;29.90;40.75;98320.28;5028054;28;8920;-77
2023/07/25 07:07:35;;;;;;;;;32.50;29.00;;;;;30.13;40.91;98330.16;5028042;28;9002;-76
2023/07/25 07:10:05;;;;;;;;;26.75;25.00;;;;;30.17;40.25;98323.34;5027704;28;8867;-75
2023/07/25 07:12:33;;;;;;;;;28.00;27.00;;;;;30.35;39.80;98331.09;4979571;28;8992;-76
2023/07/25 07:15:03;;;;;;;;;28.25;25.75;;;;;30.38;39.89;98332.59;4991898;28;8900;-78
2023/07/25 07:17:31;;;;;;;;;27.00;26.75;;;;;29.86;40.77;98327.09;5024783;28;8866;-79
2023/07/25 07:20:00;;;;;;;;;25.60;24.20;;;;;30.13;40.25;98322.03;5069438;28;8847;-77
2023/07/25 07:22:29;;;;;;;;;22.25;21.50;;;;;30.36;39.38;98321.94;5070145;28;8935;-76
2023/07/25 07:24:59;;;;;;;;;22.20;21.60;;;;;30.12;39.29;98313.09;5070813;28;8923;-76
2023/07/25 07:27:28;;;;;;;;;23.20;21.40;;;;;29.98;38.91;98294.97;5070690;28;8862;-76
2023/07/25 07:29:57;;;;;;;;;23.40;23.20;;;;;29.90;38.14;98303.19;5070577;28;8882;-80
2023/07/25 07:32:25;;;;;;;;;19.80;19.60;;;;;30.02;37.63;98296.25;5056976;28;8857;-77
2023/07/25 07:34:55;;;;;;;;;25.20;23.60;;;;;29.94;37.83;98297.19;5049329;28;8911;-78
2023/07/25 07:37:24;;;;;;;;;21.20;20.20;;;;;30.08;38.00;98300.91;5062519;28;8856;-77
2023/07/25 07:39:54;;;;;;;;;21.80;21.40;;;;;30.24;37.53;98301.78;5037438;28;8856;-79
2023/07/25 07:42:24;;;;;;;;;21.80;20.00;;;;;30.20;36.56;98295.03;5065060;28;8979;-81
2023/07/25 07:44:53;;;;;;;;;20.20;19.80;;;;;30.51;36.20;98292.91;5070186;28;8858;-76
2023/07/25 07:47:21;;;;;;;;;18.00;17.00;;;;;30.14;36.36;98288.47;5069747;28;8985;-77
2023/07/25 07:49:50;;;;;;;;;25.20;23.60;;;;;30.06;36.54;98285.88;5069703;28;8846;-76
2023/07/25 07:52:19;;;;;;;;;30.00;25.20;;;;;29.61;36.11;98272.31;5034958;28;8912;-77
2023/07/25 07:55:00;;;;;;;;;28.50;28.00;;;;;29.82;36.79;98270.75;5069522;28;8857;-77
2023/07/25 07:57:30;;;;;;;;;21.20;18.00;;;;;30.00;36.11;98275.81;5051113;28;8882;-77
2023/07/25 07:59:59;;;;;;;;;22.40;21.60;;;;;30.01;35.41;98272.03;5069771;28;8854;-77
2023/07/25 08:02:28;;;;;;;;;19.40;18.20;;;;;30.22;34.99;98271.28;5040964;28;8857;-77
2023/07/25 08:04:57;;;;;;;;;23.80;21.80;;;;;30.21;34.49;98267.75;5062283;28;8846;-79
2023/07/25 08:07:25;;;;;;;;;22.80;19.00;;;;;30.58;34.13;98263.16;5062146;28;8877;-79
2023/07/25 08:09:54;;;;;;;;;25.40;22.60;;;;;30.39;33.73;98269.19;5066989;28;8850;-79
2023/07/25 08:12:24;;;;;;;;;25.00;24.00;;;;;30.32;34.08;98247.44;5069623;28;8870;-76
2023/07/25 08:14:54;;;;;;;;;17.60;17.60;;;;;30.40;33.12;98260.03;5066740;28;8870;-77
2023/07/25 08:17:23;;;;;;;;;19.00;19.00;;;;;30.45;33.61;98249.47;5058853;28;8892;-77
2023/07/25 08:19:52;;;;;;;;;22.80;20.20;;;;;30.33;33.64;98249.09;5069608;28;8838;-76
2023/07/25 08:22:21;;;;;;;;;26.50;24.50;;;;;30.31;33.53;98246.63;5068507;28;8867;-77
2023/07/25 08:24:53;;;;;;;;;21.60;21.60;;;;;30.56;32.84;98251.66;5068673;28;9627;-79
2023/07/25 08:27:22;;;;;;;;;20.40;19.20;;;;;30.77;33.15;98242.72;5017077;28;9667;-79
2023/07/25 08:29:51;;;;;;;;;20.80;19.40;;;;;31.07;33.28;98237.97;5068143;28;8850;-79
2023/07/25 08:32:21;;;;;;;;;28.75;23.00;;;;;31.40;33.30;98229.22;5057580;28;8973;-78
2023/07/25 08:34:50;;;;;;;;;23.60;22.20;;;;;31.71;32.79;98233.41;5052534;28;9637;-79
2023/07/25 08:37:19;;;;;;;;;22.20;22.20;;;;;31.63;32.06;98236.25;5067836;28;8916;-79
2023/07/25 08:39:48;;;;;;;;;20.00;16.60;;;;;31.27;32.44;98231.84;5066293;28;8897;-77
2023/07/25 08:42:16;;;;;;;;;21.75;19.00;;;;;31.15;32.53;98219.84;5032226;28;8869;-81
2023/07/25 08:44:48;;;;;;;;;21.80;19.60;;;;;31.33;31.74;98219.38;5058832;28;8856;-81
2023/07/25 08:47:17;;;;;;;;;20.25;19.00;;;;;31.78;31.76;98225.28;5072697;28;8851;-81
2023/07/25 08:49:53;;;;;;;;;19.00;19.00;;;;;31.69;31.23;98219.19;5072967;28;9609;-79
2023/07/25 08:52:22;;;;;;;;;16.60;15.40;;;;;31.81;30.82;98214.84;5070618;28;8862;-81
2023/07/25 08:54:51;;;;;;;;;19.00;17.80;;;;;31.87;30.52;98219.47;5069121;28;8882;-81
2023/07/25 08:57:22;;;;;;;;;22.50;19.25;;;;;31.55;30.44;98217.41;5033647;28;8862;-81
2023/07/25 08:59:52;;;;;;;;;19.60;19.60;;;;;31.97;30.45;98220.97;5054577;28;8871;-81
2023/07/25 09:03:10;;;;;;;;;22.00;18.80;;;;;32.40;30.05;98216.13;5055540;28;8983;-80
2023/07/25 09:05:41;;;;;;;;;15.40;14.00;;;;;32.60;30.11;98221.59;5061629;28;8888;-80
2023/07/25 09:08:10;;;;;;;;;18.00;16.40;;;;;32.48;29.72;98225.13;5047368;28;8891;-80
2023/07/25 09:10:39;;;;;;;;;16.00;15.20;;;;;32.57;29.31;98227.44;5049154;28;8872;-79
2023/07/25 09:13:08;;;;;;;;;20.80;17.20;;;;;32.68;28.88;98238.78;5049777;28;8869;-79
2023/07/25 09:15:38;;;;;;;;;18.60;17.40;;;;;32.78;28.57;98229.16;5055849;28;8842;-81
2023/07/25 09:18:06;;;;;;;;;20.75;20.75;;;;;32.76;28.20;98235.88;5052809;28;8846;-83
2023/07/25 09:20:37;;;;;;;;;17.60;16.00;;;;;33.00;28.71;98240.69;5064091;28;8877;-80
2023/07/25 09:23:07;;;;;;;;;19.60;18.80;;;;;33.09;28.72;98246.78;5050504;28;8855;-79
2023/07/25 09:25:37;;;;;;;;;15.20;15.20;;;;;33.03;28.18;98234.81;5053808;28;8967;-80
2023/07/25 09:28:07;;;;;;;;;16.20;15.40;;;;;33.22;27.75;98241.34;5068784;28;9604;-79
2023/07/25 09:30:36;;;;;;;;;15.60;14.40;;;;;32.95;27.81;98240.47;5029997;28;8865;-80
2023/07/25 09:33:06;;;;;;;;;16.20;15.40;;;;;32.58;28.95;98245.47;5051202;28;8873;-78
2023/07/25 09:35:36;;;;;;;;;19.40;15.40;;;;;32.69;28.73;98246.72;5000072;28;8884;-79
2023/07/25 09:38:08;;;;;;;;;17.20;17.20;;;;;32.81;28.91;98252.41;5061800;28;8999;-78
2023/07/25 09:40:38;;;;;;;;;17.00;15.60;;;;;32.39;28.90;98252.53;5050194;28;8858;-77
2023/07/25 09:43:07;;;;;;;;;20.00;18.00;;;;;32.46;29.41;98257.97;5057234;28;8933;-79
2023/07/25 09:45:37;;;;;;;;;18.20;16.40;;;;;32.46;29.54;98249.81;5064989;28;9636;-78
2023/07/25 09:48:06;;;;;;;;;15.00;14.40;;;;;32.62;29.92;98244.03;5054589;28;8854;-79
2023/07/25 09:50:35;;;;;;;;;18.80;17.60;;;;;33.10;29.34;98251.19;5067615;28;8851;-79
2023/07/25 09:53:12;;;;;;;;;21.00;20.00;;;;;33.41;28.66;98239.63;5066346;28;8888;-79
2023/07/25 09:55:41;;;;;;;;;16.40;15.60;;;;;33.20;28.85;98248.88;5067633;28;8892;-77
2023/07/25 09:58:11;;;;;;;;;16.00;13.80;;;;;33.08;28.22;98239.66;5067279;28;9008;-77
2023/07/25 10:00:41;;;;;;;;;17.60;16.60;;;;;33.20;29.26;98237.13;5067576;28;8854;-77
2023/07/25 10:03:10;;;;;;;;;19.00;16.80;;;;;33.47;28.46;98232.50;5068551;28;8866;-76
2023/07/25 10:05:43;;;;;;;;;15.80;14.80;;;;;33.77;28.13;98235.59;5067336;28;9028;-80
2023/07/25 10:08:13;;;;;;;;;12.80;11.80;;;;;33.75;27.60;98234.94;5067953;28;8850;-79
2023/07/25 10:10:43;;;;;;;;;18.60;15.60;;;;;33.91;27.61;98235.53;5068003;28;8866;-77
2023/07/25 10:13:11;;;;;;;;;16.20;15.40;;;;;33.82;27.82;98234.94;5065511;28;8855;-79
2023/07/25 10:15:41;;;;;;;;;9.80;9.00;;;;;34.16;26.68;98241.09;5057128;28;8939;-81
2023/07/25 10:18:21;;;;;;;;;15.00;14.00;;;;;34.23;27.31;98241.91;5067777;28;8923;-79
2023/07/25 10:20:50;;;;;;;;;14.60;13.20;;;;;34.29;27.53;98232.03;5032274;28;8908;-77
2023/07/25 10:23:30;;;;;;;;;16.80;16.20;;;;;34.25;26.84;98239.81;5067553;28;8997;-77
2023/07/25 10:26:10;;;;;;;;;23.25;20.00;;;;;34.32;27.08;98240.63;5067685;28;8870;-78
2023/07/25 10:28:39;;;;;;;;;16.50;16.25;;;;;34.50;26.93;98234.44;5068343;28;8882;-79
2023/07/25 10:31:09;;;;;;;;;16.75;16.75;;;;;34.77;26.77;98250.63;5067876;28;8866;-78
2023/07/25 10:33:39;;;;;;;;;15.60;14.00;;;;;34.85;27.49;98246.78;5070394;28;9759;-78
2023/07/25 10:36:23;;;;;;;;;12.20;11.40;;;;;34.76;26.29;98248.97;5071650;28;8905;-79
2023/07/25 10:39:04;;;;;;;;;17.80;16.20;;;;;34.82;26.33;98242.59;5033325;28;8862;-78
2023/07/25 10:41:33;;;;;;;;;14.40;13.60;;;;;34.37;27.23;98237.22;5033215;28;8850;-78
2023/07/25 10:44:02;;;;;;;;;12.60;10.80;;;;;34.09;27.58;98234.84;5032991;28;8834;-80
2023/07/25 10:46:33;;;;;;;;;12.60;11.40;;;;;33.83;27.99;98236.63;5055148;28;8896;-78
2023/07/25 10:49:04;;;;;;;;;14.20;14.00;;;;;34.02;28.66;98231.31;5048069;28;8822;-78
2023/07/25 10:51:51;;;;;;;;;15.60;14.60;;;;;34.12;28.01;98227.06;5065504;28;8943;-80
2023/07/25 10:54:23;;;;;;;;;14.40;14.40;;;;;34.25;28.58;98222.63;5058728;28;9556;-77
2023/07/25 10:57:12;;;;;;;;;15.20;11.60;;;;;34.68;27.55;98222.78;5068924;28;8854;-77
2023/07/25 11:00:01;;;;;;;;;15.80;15.80;;;;;34.82;27.67;98225.41;5056695;28;8867;-80
2023/07/25 11:02:33;;;;;;;;;18.80;16.20;;;;;34.82;27.27;98226.22;5056707;28;8881;-77
2023/07/25 11:05:24;;;;;;;;;17.40;15.80;;;;;35.05;26.72;98217.44;5068736;28;9726;-77
2023/07/25 11:07:56;;;;;;;;;15.40;13.40;;;;;34.87;27.54;98222.81;5068285;28;8874;-78
2023/07/25 11:10:27;;;;;;;;;11.00;10.40;;;;;35.20;26.46;98227.19;5068818;28;8955;-77
2023/07/25 11:12:58;;;;;;;;;12.40;12.20;;;;;35.37;26.44;98232.94;5007683;28;8855;-77
2023/07/25 11:15:27;;;;;;;;;17.00;16.00;;;;;35.52;26.38;98234.22;4983513;28;8855;-78
2023/07/25 11:18:15;;;;;;;;;24.00;22.25;;;;;35.63;26.63;98216.25;4995635;28;8867;-76
2023/07/25 11:20:43;;;;;;;;;15.20;13.80;;;;;35.85;25.89;98210.34;5008495;28;9000;-78
2023/07/25 11:23:13;;;;;;;;;14.80;13.20;;;;;36.10;25.09;98216.53;5007717;28;8848;-79
2023/07/25 11:25:53;;;;;;;;;14.00;12.40;;;;;36.49;24.50;98210.75;5010303;28;8872;-79
2023/07/25 11:28:22;;;;;;;;;13.60;11.60;;;;;36.61;23.84;98202.56;5029285;28;8955;-79
2023/07/25 11:30:51;;;;;;;;;11.40;11.00;;;;;36.65;23.35;98201.06;5028158;28;8875;-77
2023/07/25 11:33:21;;;;;;;;;22.00;21.25;;;;;36.98;22.95;98194.19;5028336;28;8887;-78
2023/07/25 11:35:53;;;;;;;;;13.80;13.80;;;;;37.10;22.73;98202.44;5028375;28;8964;-80
2023/07/25 11:38:22;;;;;;;;;12.80;11.00;;;;;36.78;21.79;98195.38;5028460;28;9621;-77